Time;durP1;ratioP1;P1;durP2;ratioP2;P2;SDS_P1;SDS_P2;PMS_P1;PMS_P2;Temp;Humidity;BMP_temperature;BMP_pressure;BME280_temperature;BME280_humidity;BME280_pressure;Samples;Min_cycle;Max_cycle;Signal;HPM_P1;HPM_P2
2023/07/05 00:00:42;;;;;;;4.60;3.00;;;17.80;98.00;;;;;;4992423;28;20468;-72
2023/07/05 00:03:10;;;;;;;5.80;3.47;;;17.90;98.00;;;;;;4992499;28;20499;-72
2023/07/05 00:05:38;;;;;;;6.60;3.10;;;17.90;98.00;;;;;;4992287;28;20484;-72
2023/07/05 00:08:05;;;;;;;5.13;3.00;;;18.00;98.00;;;;;;4992571;28;20460;-72
2023/07/05 00:10:34;;;;;;;6.10;2.97;;;17.80;98.00;;;;;;4992881;28;20518;-72
2023/07/05 00:13:01;;;;;;;8.17;2.93;;;17.80;98.00;;;;;;4992632;28;20453;-72
2023/07/05 00:15:28;;;;;;;5.20;2.90;;;17.70;98.00;;;;;;4991744;28;20464;-72
2023/07/05 00:17:55;;;;;;;5.70;2.93;;;17.70;98.00;;;;;;4992427;28;20460;-72
2023/07/05 00:20:23;;;;;;;5.80;3.20;;;17.70;98.00;;;;;;4992383;28;20474;-72
2023/07/05 00:22:50;;;;;;;6.17;2.97;;;17.70;98.00;;;;;;4992464;28;20956;-72
2023/07/05 00:25:17;;;;;;;5.00;3.07;;;17.50;98.00;;;;;;4992324;28;21052;-72
2023/07/05 00:27:46;;;;;;;8.10;3.60;;;17.80;98.00;;;;;;4992488;28;20472;-72
2023/07/05 00:30:13;;;;;;;6.17;3.30;;;17.90;98.00;;;;;;4992319;28;20510;-72
2023/07/05 00:32:40;;;;;;;4.80;3.10;;;18.00;98.00;;;;;;4992311;28;20842;-72
2023/07/05 00:35:08;;;;;;;4.33;2.90;;;17.80;98.00;;;;;;4996117;28;20455;-72
2023/07/05 00:37:35;;;;;;;5.87;2.90;;;17.80;98.00;;;;;;4996454;28;20491;-72
2023/07/05 00:40:02;;;;;;;5.67;3.13;;;17.90;98.00;;;;;;4996105;28;20452;-72
2023/07/05 00:42:29;;;;;;;9.70;3.23;;;18.00;98.00;;;;;;4995939;28;21033;-72
2023/07/05 00:45:40;;;;;;;4.30;2.93;;;18.20;98.00;;;;;;4995950;28;20518;-72
2023/07/05 00:48:13;;;;;;;7.03;3.40;;;18.10;98.00;;;;;;4995828;28;20924;-72
2023/07/05 00:50:44;;;;;;;5.80;3.47;;;18.00;98.00;;;;;;4995977;28;20492;-72
2023/07/05 00:53:12;;;;;;;7.10;3.17;;;17.70;98.00;;;;;;4995805;28;20496;-72
2023/07/05 00:55:44;;;;;;;5.60;3.23;;;17.70;98.00;;;;;;4995690;28;20468;-72
2023/07/05 00:58:11;;;;;;;6.93;3.37;;;17.70;98.00;;;;;;4995889;28;20467;-72
2023/07/05 01:00:40;;;;;;;5.27;3.10;;;17.90;98.00;;;;;;4994374;28;21116;-72
2023/07/05 01:03:11;;;;;;;5.07;3.00;;;18.00;98.00;;;;;;4995880;28;20478;-72
2023/07/05 01:05:38;;;;;;;6.40;2.70;;;18.10;98.00;;;;;;4995563;28;20463;-72
2023/07/05 01:08:06;;;;;;;3.10;2.30;;;18.30;98.00;;;;;;4995749;28;20464;-72
2023/07/05 01:10:34;;;;;;;4.07;2.53;;;18.50;98.00;;;;;;4994247;28;20460;-72
2023/07/05 01:13:07;;;;;;;8.90;2.90;;;18.60;98.00;;;;;;4994546;28;20459;-72
2023/07/05 01:15:43;;;;;;;6.60;2.90;;;18.70;98.00;;;;;;4995540;28;20468;-72
2023/07/05 01:18:19;;;;;;;4.73;3.13;;;18.80;98.00;;;;;;4994277;28;20495;-72
2023/07/05 01:20:56;;;;;;;6.80;3.37;;;18.80;98.00;;;;;;4995542;28;20483;-72
2023/07/05 01:23:45;;;;;;;6.00;3.00;;;18.80;98.00;;;;;;4995399;28;20464;-72
2023/07/05 01:26:26;;;;;;;4.47;3.20;;;18.70;98.00;;;;;;4995370;28;20480;-72
2023/07/05 01:29:19;;;;;;;4.87;3.20;;;18.70;98.00;;;;;;4995471;28;20468;-72
2023/07/05 01:31:57;;;;;;;7.10;3.47;;;18.80;98.00;;;;;;4985470;28;20527;-72
2023/07/05 01:34:37;;;;;;;5.17;3.00;;;18.90;98.00;;;;;;4995172;28;20488;-71
2023/07/05 01:37:06;;;;;;;5.43;2.90;;;19.00;98.00;;;;;;4995046;28;20503;-72
2023/07/05 01:39:33;;;;;;;4.30;2.87;;;19.00;98.00;;;;;;4994861;28;20839;-72
2023/07/05 01:42:03;;;;;;;5.47;3.00;;;19.00;98.00;;;;;;4994832;28;20468;-71
2023/07/05 01:44:31;;;;;;;5.17;3.00;;;19.00;98.00;;;;;;4994784;28;20464;-72
2023/07/05 01:47:07;;;;;;;6.70;2.97;;;19.00;98.00;;;;;;4994509;28;20488;-72
2023/07/05 01:49:44;;;;;;;11.07;3.80;;;18.90;98.00;;;;;;4994928;28;20819;-72
2023/07/05 01:52:19;;;;;;;4.60;2.70;;;18.80;98.00;;;;;;4993722;28;20535;-72
2023/07/05 01:54:54;;;;;;;4.70;2.97;;;18.70;98.00;;;;;;4994812;28;20463;-72
2023/07/05 01:57:26;;;;;;;5.97;3.33;;;18.70;98.00;;;;;;4994714;28;20464;-72
2023/07/05 02:00:07;;;;;;;4.77;3.20;;;18.70;98.00;;;;;;4994640;28;20464;-72
2023/07/05 02:02:39;;;;;;;5.70;2.90;;;18.70;98.00;;;;;;4994704;28;20563;-72
2023/07/05 02:05:09;;;;;;;4.47;2.53;;;18.80;98.00;;;;;;4994509;28;20937;-72
2023/07/05 02:07:36;;;;;;;5.00;3.00;;;18.80;98.00;;;;;;4994813;28;20559;-72
2023/07/05 02:10:06;;;;;;;5.27;3.40;;;19.00;98.00;;;;;;4994571;28;20860;-72
2023/07/05 02:12:33;;;;;;;4.47;2.73;;;19.00;98.00;;;;;;4994713;28;20472;-72
2023/07/05 02:15:00;;;;;;;5.53;3.00;;;19.20;98.00;;;;;;4994567;28;20465;-72
2023/07/05 02:17:27;;;;;;;4.67;3.07;;;19.20;98.00;;;;;;4994772;28;20459;-72
2023/07/05 02:19:56;;;;;;;5.20;2.80;;;19.10;98.00;;;;;;4994427;28;20510;-72
2023/07/05 02:22:23;;;;;;;5.53;3.17;;;19.20;98.00;;;;;;4994360;28;20456;-72
2023/07/05 02:24:51;;;;;;;4.90;3.13;;;19.10;98.00;;;;;;4994518;28;20456;-72
2023/07/05 02:27:19;;;;;;;8.13;2.87;;;19.10;98.00;;;;;;4994105;28;21075;-72
2023/07/05 02:29:46;;;;;;;4.03;2.63;;;19.20;98.00;;;;;;4994100;28;20449;-72
2023/07/05 02:32:13;;;;;;;5.50;3.10;;;19.20;98.00;;;;;;4994066;28;20539;-72
2023/07/05 02:34:42;;;;;;;4.43;2.60;;;19.30;98.00;;;;;;4994227;28;20503;-72
2023/07/05 02:37:11;;;;;;;4.40;2.50;;;19.30;98.00;;;;;;4992610;28;20460;-72
2023/07/05 02:39:38;;;;;;;4.63;2.77;;;19.40;98.00;;;;;;4993955;28;20527;-72
2023/07/05 02:42:07;;;;;;;5.57;2.90;;;19.40;98.00;;;;;;4993690;28;20846;-72
2023/07/05 02:44:34;;;;;;;4.70;3.10;;;19.40;98.00;;;;;;4993763;28;20460;-72
2023/07/05 02:47:02;;;;;;;4.73;2.93;;;19.50;98.00;;;;;;4993547;28;20546;-72
2023/07/05 02:49:29;;;;;;;5.53;3.17;;;19.30;98.00;;;;;;4993615;28;20456;-72
2023/07/05 02:51:57;;;;;;;7.33;3.20;;;19.30;98.00;;;;;;4993619;28;20551;-72
2023/07/05 02:54:26;;;;;;;4.80;2.93;;;19.40;98.00;;;;;;4992027;28;20527;-72
2023/07/05 02:56:53;;;;;;;7.80;3.30;;;19.40;98.00;;;;;;4993599;28;20531;-72
2023/07/05 02:59:20;;;;;;;5.97;3.23;;;19.30;98.00;;;;;;4993383;28;20472;-72
2023/07/05 03:01:47;;;;;;;6.00;3.17;;;19.30;98.00;;;;;;4992359;28;20452;-72
2023/07/05 03:04:14;;;;;;;3.97;2.80;;;19.20;98.00;;;;;;4993512;28;20523;-72
2023/07/05 03:06:42;;;;;;;4.27;2.50;;;19.20;98.00;;;;;;4992200;28;20484;-72
2023/07/05 03:09:09;;;;;;;4.80;3.00;;;19.20;98.00;;;;;;4993387;28;20468;-72
2023/07/05 03:11:38;;;;;;;7.47;3.30;;;19.30;98.00;;;;;;4993551;28;20457;-72
2023/07/05 03:14:06;;;;;;;3.40;2.37;;;19.30;98.00;;;;;;4993558;28;20463;-72
2023/07/05 03:16:33;;;;;;;3.50;2.43;;;19.20;98.00;;;;;;4993296;28;20469;-72
2023/07/05 03:19:00;;;;;;;5.60;2.60;;;19.30;98.00;;;;;;4993252;28;20456;-72
2023/07/05 03:21:27;;;;;;;4.93;2.40;;;19.30;98.00;;;;;;4992026;28;20452;-72
2023/07/05 03:23:56;;;;;;;3.83;2.60;;;19.50;98.00;;;;;;4992756;28;20467;-72
2023/07/05 03:26:23;;;;;;;3.77;2.50;;;19.60;98.00;;;;;;4992922;28;20526;-72
2023/07/05 03:28:52;;;;;;;4.77;2.70;;;19.70;98.00;;;;;;4991859;28;21028;-72
2023/07/05 03:31:19;;;;;;;4.20;2.53;;;19.60;98.00;;;;;;4993171;28;20453;-72
2023/07/05 03:33:46;;;;;;;3.40;2.20;;;19.60;98.00;;;;;;4992776;28;20456;-72
2023/07/05 03:36:17;;;;;;;3.10;2.30;;;19.60;98.00;;;;;;4992963;28;20460;-72
2023/07/05 03:38:44;;;;;;;3.30;2.10;;;19.60;98.00;;;;;;4992887;28;20460;-72
2023/07/05 03:41:14;;;;;;;2.50;1.97;;;19.50;98.00;;;;;;4992697;28;20464;-72
2023/07/05 03:43:43;;;;;;;3.30;2.03;;;19.60;98.00;;;;;;4992874;28;20463;-72
2023/07/05 03:46:13;;;;;;;3.80;1.90;;;19.60;98.00;;;;;;4992885;28;20669;-72
2023/07/05 03:48:42;;;;;;;2.20;1.93;;;19.70;98.00;;;;;;4992965;28;20827;-72
2023/07/05 03:51:11;;;;;;;2.53;1.77;;;19.70;98.00;;;;;;4992848;28;20515;-72
2023/07/05 03:53:39;;;;;;;3.00;1.97;;;19.70;98.00;;;;;;4992757;28;20467;-72
2023/07/05 03:56:08;;;;;;;3.67;2.30;;;19.60;98.00;;;;;;4992626;28;20529;-72
2023/07/05 03:58:39;;;;;;;3.60;2.10;;;19.50;98.00;;;;;;4992577;28;20535;-72
2023/07/05 04:01:08;;;;;;;3.50;2.03;;;19.50;98.00;;;;;;4992578;28;20453;-72
2023/07/05 04:03:38;;;;;;;3.30;2.27;;;19.50;98.00;;;;;;4992839;28;20511;-72
2023/07/05 04:06:05;;;;;;;2.73;2.13;;;19.40;98.00;;;;;;4992550;28;20460;-72
2023/07/05 04:08:32;;;;;;;2.53;1.80;;;19.30;98.00;;;;;;4995604;28;20488;-72
2023/07/05 04:10:59;;;;;;;2.70;2.07;;;19.30;98.00;;;;;;4999212;28;20459;-72
2023/07/05 04:13:26;;;;;;;3.13;2.10;;;19.30;98.00;;;;;;4999326;28;21087;-72
2023/07/05 04:16:01;;;;;;;3.90;2.00;;;19.30;98.00;;;;;;4998861;28;20506;-72
2023/07/05 04:18:28;;;;;;;2.67;1.77;;;19.30;98.00;;;;;;4998801;28;20468;-72
2023/07/05 04:20:57;;;;;;;3.17;2.27;;;19.40;98.00;;;;;;4998828;28;20463;-72
2023/07/05 04:23:25;;;;;;;3.30;1.90;;;19.40;98.00;;;;;;4998866;28;20518;-72
2023/07/05 04:25:59;;;;;;;2.33;1.90;;;19.40;98.00;;;;;;4999024;28;20456;-72
2023/07/05 04:28:26;;;;;;;2.70;1.90;;;19.40;98.00;;;;;;4998937;28;20569;-72
2023/07/05 04:30:53;;;;;;;2.33;1.80;;;19.50;98.00;;;;;;4998831;28;20833;-72
2023/07/05 04:33:20;;;;;;;3.60;2.03;;;19.50;98.00;;;;;;4998007;28;20463;-72
2023/07/05 04:35:50;;;;;;;3.00;2.07;;;19.40;98.00;;;;;;4998848;28;20527;-72
2023/07/05 04:38:18;;;;;;;3.40;2.17;;;19.50;98.00;;;;;;4998979;28;20456;-72
2023/07/05 04:40:45;;;;;;;2.83;1.87;;;19.50;98.00;;;;;;4998683;28;20522;-72
2023/07/05 04:43:12;;;;;;;2.50;1.97;;;19.50;98.00;;;;;;4998818;28;20456;-72
2023/07/05 04:45:40;;;;;;;1.87;1.60;;;19.50;98.00;;;;;;4998793;28;20463;-72
2023/07/05 04:48:07;;;;;;;2.80;1.93;;;19.50;98.00;;;;;;4998683;28;20520;-72
2023/07/05 04:50:34;;;;;;;2.97;1.90;;;19.50;98.00;;;;;;4997677;28;20483;-72
2023/07/05 04:53:01;;;;;;;2.77;2.03;;;19.50;98.00;;;;;;4998776;28;20456;-72
2023/07/05 04:55:29;;;;;;;5.13;2.40;;;19.60;98.00;;;;;;4998579;28;20973;-72
2023/07/05 04:57:56;;;;;;;3.67;2.20;;;19.60;98.00;;;;;;4998882;28;20989;-72
2023/07/05 05:00:24;;;;;;;3.10;2.00;;;19.70;98.00;;;;;;4998477;28;20468;-72
2023/07/05 05:02:51;;;;;;;2.20;1.80;;;19.60;98.00;;;;;;4998336;28;20468;-72
2023/07/05 05:05:21;;;;;;;3.77;2.20;;;19.60;98.00;;;;;;4998639;28;20514;-72
2023/07/05 05:07:48;;;;;;;2.23;1.60;;;19.60;98.00;;;;;;4998728;28;20484;-72
2023/07/05 05:10:16;;;;;;;2.90;1.93;;;19.60;98.00;;;;;;4997319;28;20466;-72
2023/07/05 05:12:45;;;;;;;2.70;1.80;;;19.50;98.00;;;;;;4998687;28;20456;-72
2023/07/05 05:15:12;;;;;;;4.90;2.40;;;19.50;98.00;;;;;;4998231;28;20460;-72
2023/07/05 05:17:40;;;;;;;2.93;1.80;;;19.50;98.00;;;;;;4998412;28;20469;-72
2023/07/05 05:20:08;;;;;;;2.03;1.83;;;19.50;98.00;;;;;;4994415;28;20448;-72
2023/07/05 05:22:35;;;;;;;2.47;2.00;;;19.50;98.00;;;;;;4994004;28;20511;-72
2023/07/05 05:25:03;;;;;;;2.30;1.87;;;19.60;98.00;;;;;;4995060;28;20456;-73
2023/07/05 05:27:30;;;;;;;2.13;1.70;;;19.70;98.00;;;;;;4977889;28;20481;-72
2023/07/05 05:29:58;;;;;;;2.23;1.73;;;19.80;98.00;;;;;;4995242;28;20468;-72
2023/07/05 05:32:25;;;;;;;3.23;2.10;;;19.90;98.00;;;;;;4995134;28;20452;-72
2023/07/05 05:34:54;;;;;;;2.43;1.60;;;20.00;98.00;;;;;;4995097;28;20452;-72
2023/07/05 05:37:21;;;;;;;2.60;1.73;;;20.10;98.00;;;;;;4995083;28;20468;-72
2023/07/05 05:39:48;;;;;;;1.80;1.50;;;20.20;98.00;;;;;;4995059;28;20453;-72
2023/07/05 05:42:15;;;;;;;2.53;1.70;;;20.20;98.00;;;;;;4995236;28;21106;-72
2023/07/05 05:44:43;;;;;;;2.47;1.90;;;20.20;98.00;;;;;;4993920;28;20457;-72
2023/07/05 05:47:11;;;;;;;3.60;2.00;;;20.20;98.00;;;;;;4995097;28;20464;-72
2023/07/05 05:49:38;;;;;;;3.13;2.00;;;20.20;98.00;;;;;;4993770;28;20465;-72
2023/07/05 05:52:06;;;;;;;2.17;1.60;;;20.30;98.00;;;;;;4993911;28;20870;-72
2023/07/05 05:54:33;;;;;;;2.07;1.80;;;20.40;98.00;;;;;;4994916;28;20456;-75
2023/07/05 05:57:01;;;;;;;4.27;2.50;;;20.50;98.00;;;;;;4994931;28;20530;-75
2023/07/05 05:59:28;;;;;;;1.50;1.37;;;20.60;98.00;;;;;;4993716;28;20845;-75
2023/07/05 06:01:55;;;;;;;4.00;1.90;;;20.60;98.00;;;;;;4994938;28;20511;-75
2023/07/05 06:04:25;;;;;;;1.93;1.60;;;20.70;98.00;;;;;;4994969;28;20464;-75
2023/07/05 06:06:52;;;;;;;2.50;1.70;;;20.70;98.00;;;;;;4994599;28;20467;-75
2023/07/05 06:09:19;;;;;;;2.10;1.67;;;20.70;98.00;;;;;;4994265;28;20488;-74
2023/07/05 06:11:46;;;;;;;1.80;1.60;;;20.70;98.00;;;;;;4994628;28;20853;-75
2023/07/05 06:14:13;;;;;;;3.27;1.90;;;20.70;98.00;;;;;;4994562;28;20448;-75
2023/07/05 06:16:40;;;;;;;3.00;1.90;;;20.70;98.00;;;;;;4994197;28;20892;-75
2023/07/05 06:19:07;;;;;;;2.17;1.60;;;20.70;98.00;;;;;;4994523;28;20456;-75
2023/07/05 06:21:38;;;;;;;2.40;1.80;;;20.80;98.00;;;;;;4994359;28;20469;-75
2023/07/05 06:24:05;;;;;;;2.80;1.80;;;20.90;98.00;;;;;;4993189;28;20855;-75
2023/07/05 06:26:32;;;;;;;2.63;2.10;;;21.00;98.00;;;;;;4994470;28;20464;-75
2023/07/05 06:29:00;;;;;;;2.30;1.70;;;21.10;98.00;;;;;;4994340;28;20511;-76
2023/07/05 06:31:32;;;;;;;2.23;1.90;;;21.20;98.00;;;;;;4992760;28;20456;-75
2023/07/05 06:34:00;;;;;;;3.00;2.20;;;21.20;98.00;;;;;;4993332;28;20917;-75
2023/07/05 06:36:27;;;;;;;2.90;1.93;;;21.30;98.00;;;;;;4994255;28;20465;-75
2023/07/05 06:38:56;;;;;;;5.93;2.20;;;21.40;98.00;;;;;;4992995;28;20500;-76
2023/07/05 06:41:23;;;;;;;2.53;2.00;;;21.30;98.00;;;;;;4994433;28;20452;-74
2023/07/05 06:43:51;;;;;;;2.67;1.83;;;21.30;98.00;;;;;;4994024;28;21017;-75
2023/07/05 06:46:18;;;;;;;2.53;1.83;;;21.40;98.00;;;;;;4993996;28;20456;-75
2023/07/05 06:48:45;;;;;;;4.53;2.00;;;21.50;98.00;;;;;;4993998;28;20523;-76
2023/07/05 06:51:12;;;;;;;3.50;2.30;;;21.70;98.00;;;;;;4993987;28;20959;-75
2023/07/05 06:53:40;;;;;;;2.17;1.80;;;21.90;98.00;;;;;;4993936;28;20463;-75
2023/07/05 06:56:09;;;;;;;3.63;2.37;;;21.90;98.00;;;;;;4993760;28;20547;-74
2023/07/05 06:58:36;;;;;;;3.90;2.43;;;22.00;98.00;;;;;;4993821;28;20464;-74
2023/07/05 07:01:04;;;;;;;4.37;1.97;;;22.00;98.00;;;;;;4993476;28;20457;-74
2023/07/05 07:03:31;;;;;;;2.87;1.90;;;22.10;98.00;;;;;;4976498;28;20457;-75
2023/07/05 07:05:59;;;;;;;6.23;2.40;;;22.00;98.00;;;;;;4992301;28;20780;-74
2023/07/05 07:08:30;;;;;;;2.73;2.00;;;22.00;98.00;;;;;;4993448;28;20492;-75
2023/07/05 07:11:00;;;;;;;3.20;2.20;;;21.90;98.00;;;;;;4993509;28;20503;-75
2023/07/05 07:13:29;;;;;;;2.90;2.00;;;21.90;98.00;;;;;;4993729;28;20460;-74
2023/07/05 07:16:04;;;;;;;3.20;2.10;;;21.90;98.00;;;;;;4991984;28;20515;-74
2023/07/05 07:18:32;;;;;;;1.93;1.60;;;21.70;98.00;;;;;;4992247;28;20460;-74
2023/07/05 07:21:01;;;;;;;2.17;1.77;;;21.50;98.00;;;;;;4991925;28;20915;-74
2023/07/05 07:23:29;;;;;;;2.67;1.67;;;21.00;98.00;;;;;;4993015;28;20467;-73
2023/07/05 07:26:00;;;;;;;2.57;1.50;;;20.40;98.00;;;;;;4992911;28;20938;-72
2023/07/05 07:28:29;;;;;;;3.00;1.80;;;20.10;98.00;;;;;;4992988;28;21026;-72
2023/07/05 07:30:57;;;;;;;1.80;1.57;;;19.70;98.00;;;;;;4991603;28;20475;-72
2023/07/05 07:33:25;;;;;;;4.03;2.03;;;19.60;98.00;;;;;;4992816;28;20527;-71
2023/07/05 11:49:39;;;;;;;4.83;3.03;;;26.20;80.80;;;;;;4985258;23;20519;-71
2023/07/05 11:52:13;;;;;;;3.47;2.40;;;25.90;81.30;;;;;;4972223;28;20457;-70
2023/07/05 11:54:48;;;;;;;4.53;2.97;;;25.90;82.00;;;;;;4973047;28;20457;-70
2023/07/05 11:57:15;;;;;;;4.30;2.33;;;26.10;86.00;;;;;;4972889;28;20500;-71
2023/07/05 11:59:48;;;;;;;4.40;2.77;;;26.40;82.60;;;;;;4973249;28;20457;-70
2023/07/05 12:02:41;;;;;;;4.60;2.57;;;26.40;79.70;;;;;;4972965;28;20473;-70
2023/07/05 12:05:13;;;;;;;4.27;2.50;;;26.50;80.70;;;;;;4971168;28;20539;-70
2023/07/05 12:07:42;;;;;;;4.90;2.50;;;26.40;80.10;;;;;;4973220;28;20458;-71
2023/07/05 12:10:21;;;;;;;4.53;2.57;;;26.80;80.50;;;;;;4972800;28;20468;-70
2023/07/05 12:12:48;;;;;;;3.07;2.27;;;27.20;77.30;;;;;;4972771;28;20476;-71
2023/07/05 12:15:16;;;;;;;4.07;2.33;;;27.50;77.60;;;;;;4972834;28;20457;-71
2023/07/05 12:17:43;;;;;;;3.10;2.30;;;27.80;75.80;;;;;;4972861;28;20944;-71
2023/07/05 12:20:37;;;;;;;3.80;2.40;;;27.90;74.40;;;;;;4969795;28;20469;-72
2023/07/05 12:23:07;;;;;;;4.10;2.37;;;27.90;73.70;;;;;;4971138;28;20967;-71
2023/07/05 12:25:35;;;;;;;4.57;2.70;;;28.00;74.50;;;;;;4971016;28;20461;-71
2023/07/05 12:28:03;;;;;;;2.80;2.00;;;27.70;73.10;;;;;;4970000;28;20964;-71
2023/07/05 12:30:31;;;;;;;4.63;2.63;;;27.80;75.40;;;;;;4973667;28;20548;-71
2023/07/05 12:33:01;;;;;;;3.40;2.43;;;28.10;74.80;;;;;;4974953;28;20453;-70
2023/07/05 12:35:31;;;;;;;3.40;2.40;;;28.10;72.10;;;;;;4975061;28;20963;-71
2023/07/05 12:37:59;;;;;;;3.97;2.33;;;27.90;73.50;;;;;;4975544;28;20828;-70
2023/07/05 12:40:28;;;;;;;2.90;2.23;;;28.10;72.60;;;;;;4976266;28;20504;-71
2023/07/05 12:42:59;;;;;;;3.30;2.40;;;28.30;74.10;;;;;;4976645;28;20461;-70
2023/07/05 12:45:31;;;;;;;3.57;2.57;;;28.50;72.90;;;;;;4976464;28;20483;-70
2023/07/05 12:47:59;;;;;;;3.57;2.30;;;28.50;72.20;;;;;;4974975;28;20512;-71
2023/07/05 12:50:28;;;;;;;3.63;2.00;;;28.40;72.00;;;;;;4976319;28;20469;-70
2023/07/05 12:53:06;;;;;;;3.13;2.00;;;28.60;73.80;;;;;;4975691;28;20786;-70
2023/07/05 12:55:40;;;;;;;3.90;2.40;;;28.90;72.70;;;;;;4976171;28;20548;-70
2023/07/05 12:58:10;;;;;;;3.27;2.20;;;29.00;72.30;;;;;;4975739;28;20560;-70
2023/07/05 13:00:51;;;;;;;5.50;2.50;;;28.80;71.30;;;;;;4975684;28;20601;-71
2023/07/05 13:03:19;;;;;;;3.73;2.70;;;28.60;72.60;;;;;;4975921;28;20884;-70
2023/07/05 13:05:47;;;;;;;4.60;2.47;;;28.20;71.80;;;;;;4975906;28;20519;-70
2023/07/05 13:08:16;;;;;;;3.13;2.20;;;28.10;73.50;;;;;;4975678;28;20944;-71
2023/07/05 13:10:44;;;;;;;3.40;2.00;;;28.30;73.60;;;;;;4976140;28;20873;-72
2023/07/05 13:13:27;;;;;;;4.07;2.30;;;28.70;72.20;;;;;;4975794;28;20500;-70
2023/07/05 13:15:56;;;;;;;4.20;2.27;;;28.90;70.40;;;;;;4976077;28;20465;-70
2023/07/05 13:18:28;;;;;;;3.47;2.00;;;29.00;70.20;;;;;;4975895;28;20471;-70
2023/07/05 13:21:10;;;;;;;3.30;2.33;;;29.20;70.70;;;;;;4975642;28;20474;-71
2023/07/05 13:23:45;;;;;;;2.50;2.20;;;29.10;69.10;;;;;;4975205;28;21094;-70
2023/07/05 13:26:31;;;;;;;5.63;2.40;;;29.00;70.60;;;;;;4974797;28;20456;-71
2023/07/05 13:28:59;;;;;;;4.17;2.53;;;29.00;70.70;;;;;;4975913;28;20997;-71
2023/07/05 13:31:27;;;;;;;5.70;2.47;;;29.10;68.90;;;;;;4975738;28;20569;-70
2023/07/05 13:33:56;;;;;;;3.20;2.13;;;29.20;69.60;;;;;;4975969;28;20449;-71
2023/07/05 13:36:24;;;;;;;3.70;2.50;;;29.40;69.60;;;;;;4975392;28;20516;-70
2023/07/05 13:38:53;;;;;;;4.77;2.60;;;29.50;67.90;;;;;;4975730;28;20856;-70
2023/07/05 13:41:26;;;;;;;2.97;2.07;;;29.50;67.20;;;;;;4974488;28;21174;-70
2023/07/05 13:43:53;;;;;;;2.47;1.90;;;29.40;67.20;;;;;;4975584;28;20465;-72
2023/07/05 13:46:21;;;;;;;3.10;2.10;;;29.50;67.50;;;;;;4975609;28;20960;-70
2023/07/05 13:48:49;;;;;;;5.07;2.50;;;29.60;66.60;;;;;;4975186;28;20536;-71
2023/07/05 13:51:27;;;;;;;3.10;2.20;;;29.50;66.90;;;;;;4975441;28;20469;-71
2023/07/05 13:53:56;;;;;;;2.30;1.73;;;29.30;66.20;;;;;;4975423;28;20453;-71
2023/07/05 13:56:31;;;;;;;2.70;1.97;;;28.80;66.90;;;;;;4975334;28;20457;-70
2023/07/05 13:58:58;;;;;;;4.80;2.30;;;28.30;68.00;;;;;;4975392;28;20505;-71
2023/07/05 14:01:26;;;;;;;2.60;1.93;;;27.90;67.70;;;;;;4975243;28;20468;-71
2023/07/05 14:03:53;;;;;;;4.00;2.20;;;28.10;68.30;;;;;;4975301;28;20462;-71
2023/07/05 14:06:23;;;;;;;2.67;2.10;;;28.30;66.80;;;;;;4975141;28;20944;-70
2023/07/05 14:08:50;;;;;;;3.57;2.03;;;28.30;68.20;;;;;;4975382;28;20485;-71
2023/07/05 14:11:22;;;;;;;3.03;2.27;;;28.60;67.80;;;;;;4975144;28;20457;-70
2023/07/05 14:13:53;;;;;;;4.00;2.53;;;28.70;67.20;;;;;;4975209;28;20457;-70
2023/07/05 14:16:20;;;;;;;2.80;2.10;;;29.00;67.00;;;;;;4975073;28;20457;-70
2023/07/05 14:18:50;;;;;;;2.17;1.83;;;29.20;66.90;;;;;;4975278;28;20472;-71
2023/07/05 14:21:23;;;;;;;2.70;1.93;;;29.50;66.30;;;;;;4975368;28;20472;-71
2023/07/05 14:23:50;;;;;;;4.23;2.27;;;29.70;66.00;;;;;;4975151;28;20464;-70
2023/07/05 14:26:19;;;;;;;3.47;2.00;;;29.60;64.90;;;;;;4974587;28;20975;-71
2023/07/05 14:28:46;;;;;;;3.37;2.00;;;29.50;65.60;;;;;;4974802;28;20465;-71
2023/07/05 14:31:14;;;;;;;2.67;2.10;;;28.90;65.60;;;;;;4974559;28;20496;-70
2023/07/05 14:33:42;;;;;;;4.23;2.70;;;28.90;66.90;;;;;;4974700;28;20453;-70
2023/07/05 14:36:11;;;;;;;3.63;2.37;;;28.90;66.20;;;;;;4974388;28;20485;-71
2023/07/05 14:38:38;;;;;;;3.67;2.20;;;28.80;66.20;;;;;;4974492;28;20454;-70
2023/07/05 14:41:06;;;;;;;2.87;2.07;;;28.50;66.80;;;;;;4973330;28;20776;-70
2023/07/05 14:43:34;;;;;;;3.40;1.90;;;28.70;66.90;;;;;;4974301;28;20473;-70
2023/07/05 14:46:01;;;;;;;2.55;2.00;;;28.80;67.10;;;;;;4973807;28;20458;-67
2023/07/05 14:48:28;;;;;;;2.90;2.00;;;28.90;66.40;;;;;;4974491;28;20213;-67
2023/07/05 14:50:55;;;;;;;4.83;1.93;;;29.00;66.50;;;;;;4974325;28;20485;-70
2023/07/05 14:53:27;;;;;;;2.77;2.00;;;28.90;66.50;;;;;;4974117;28;20457;-68
2023/07/05 14:55:55;;;;;;;2.40;1.97;;;28.90;65.70;;;;;;4974169;28;20453;-68
2023/07/05 14:58:29;;;;;;;3.07;1.83;;;29.00;67.50;;;;;;4981184;28;20463;-70
2023/07/05 15:00:58;;;;;;;3.03;2.20;;;29.10;67.20;;;;;;4993132;28;20914;-69
2023/07/05 15:03:27;;;;;;;3.40;2.10;;;29.00;66.00;;;;;;4993659;28;20463;-70
2023/07/05 15:05:56;;;;;;;2.90;2.00;;;29.10;67.60;;;;;;4993351;28;20460;-68
2023/07/05 15:08:24;;;;;;;4.03;2.27;;;29.10;66.60;;;;;;4993337;28;20871;-69
2023/07/05 15:10:52;;;;;;;2.30;1.90;;;29.30;66.40;;;;;;4993228;28;20492;-68
2023/07/05 15:13:22;;;;;;;2.70;2.10;;;29.30;65.10;;;;;;4992324;28;20502;-70
2023/07/05 15:15:50;;;;;;;6.60;2.17;;;29.50;67.00;;;;;;4993122;28;20498;-70
2023/07/05 15:18:18;;;;;;;3.00;2.50;;;29.40;65.90;;;;;;4993263;28;20459;-68
2023/07/05 15:20:45;;;;;;;3.87;2.37;;;29.20;65.70;;;;;;4993449;28;20453;-68
2023/07/05 15:23:12;;;;;;;4.53;2.00;;;28.90;66.80;;;;;;4993517;28;20460;-69
2023/07/05 15:25:40;;;;;;;3.30;2.20;;;28.70;67.20;;;;;;4992929;28;20452;-68
2023/07/05 15:28:08;;;;;;;3.23;2.20;;;28.60;67.30;;;;;;4993208;28;20459;-69
2023/07/05 15:30:35;;;;;;;2.30;2.00;;;28.40;66.70;;;;;;4991692;28;20487;-68
2023/07/05 15:33:02;;;;;;;3.20;2.00;;;28.30;66.80;;;;;;4993079;28;20465;-68
2023/07/05 15:35:30;;;;;;;2.73;2.10;;;28.00;67.40;;;;;;4992961;28;20464;-68
2023/07/05 15:37:57;;;;;;;3.13;2.10;;;28.10;68.50;;;;;;4992856;28;20456;-70
2023/07/05 15:40:24;;;;;;;2.73;2.10;;;28.30;68.80;;;;;;4993008;28;20507;-69
2023/07/05 15:42:53;;;;;;;3.13;2.10;;;28.30;67.40;;;;;;4992979;28;20460;-69
2023/07/05 15:45:24;;;;;;;4.40;2.43;;;28.10;67.70;;;;;;4992911;28;20464;-68
2023/07/05 15:47:53;;;;;;;3.30;2.30;;;28.00;69.20;;;;;;4992775;28;20804;-70
2023/07/05 15:50:21;;;;;;;4.90;2.30;;;28.20;68.40;;;;;;4992668;28;20488;-68
2023/07/05 15:52:50;;;;;;;3.20;2.30;;;28.20;68.40;;;;;;4991830;28;20467;-69
2023/07/05 15:55:22;;;;;;;6.67;2.53;;;28.00;67.80;;;;;;4992954;28;20515;-68
2023/07/05 15:57:51;;;;;;;3.07;2.20;;;27.70;68.20;;;;;;4991503;28;20995;-68
2023/07/05 16:00:25;;;;;;;3.03;2.03;;;27.40;69.10;;;;;;4992700;28;20465;-69
2023/07/05 16:02:58;;;;;;;2.63;1.90;;;27.60;69.80;;;;;;4992533;28;20833;-69
2023/07/05 16:05:33;;;;;;;4.80;2.00;;;27.80;68.80;;;;;;4988910;28;20465;-69
2023/07/05 16:08:05;;;;;;;2.60;2.17;;;27.70;68.20;;;;;;4981750;28;20518;-69
2023/07/05 16:10:38;;;;;;;3.53;2.10;;;27.40;68.80;;;;;;4980568;28;20520;-68
2023/07/05 16:13:08;;;;;;;4.00;2.23;;;27.40;70.20;;;;;;4977860;28;20553;-69
2023/07/05 16:15:36;;;;;;;3.10;2.40;;;27.50;71.80;;;;;;4994293;23;20936;-70
2023/07/05 16:18:04;;;;;;;3.33;2.20;;;27.50;69.20;;;;;;4992722;28;20453;-69
2023/07/05 16:20:33;;;;;;;2.83;2.10;;;27.10;69.40;;;;;;4992526;28;20506;-69
2023/07/05 16:23:06;;;;;;;2.67;1.90;;;26.90;70.50;;;;;;4990864;28;20468;-68
2023/07/05 16:25:33;;;;;;;5.80;2.43;;;26.90;70.90;;;;;;4992427;28;20461;-69
2023/07/05 16:28:00;;;;;;;2.83;2.03;;;27.00;70.70;;;;;;4992311;28;20452;-69
2023/07/05 16:30:27;;;;;;;3.20;2.13;;;27.10;70.80;;;;;;4991148;28;20487;-68
2023/07/05 16:32:55;;;;;;;3.57;2.33;;;26.80;70.00;;;;;;4992282;28;20815;-69
2023/07/05 16:35:22;;;;;;;3.10;2.27;;;26.50;70.60;;;;;;4992340;28;20456;-69
2023/07/05 16:37:51;;;;;;;2.33;1.90;;;26.30;71.20;;;;;;4992173;28;20511;-68
2023/07/05 16:40:19;;;;;;;3.97;2.30;;;25.90;71.40;;;;;;4991997;28;20535;-66
2023/07/05 16:42:49;;;;;;;2.80;1.90;;;25.50;72.70;;;;;;4992369;28;20503;-67
2023/07/05 16:45:17;;;;;;;3.13;2.10;;;25.20;73.40;;;;;;4991150;28;20539;-68
2023/07/05 16:47:45;;;;;;;3.47;2.10;;;25.00;73.70;;;;;;4992228;28;20464;-69
2023/07/05 16:50:15;;;;;;;3.53;2.10;;;25.20;74.20;;;;;;4992321;28;20488;-68
2023/07/05 16:52:42;;;;;;;3.17;2.20;;;25.50;73.70;;;;;;4992488;28;20587;-68
2023/07/05 16:55:10;;;;;;;3.20;2.00;;;25.50;73.50;;;;;;4992536;28;20452;-68
2023/07/05 16:57:38;;;;;;;3.40;2.43;;;25.50;73.30;;;;;;4992409;28;21087;-68
2023/07/05 17:00:08;;;;;;;3.00;2.20;;;25.70;73.00;;;;;;4991182;28;20452;-70
2023/07/05 17:02:37;;;;;;;3.37;2.00;;;25.90;73.40;;;;;;4992552;28;20456;-70
2023/07/05 17:05:04;;;;;;;2.80;1.93;;;26.00;72.50;;;;;;4992365;28;20460;-69
2023/07/05 17:07:31;;;;;;;3.03;1.90;;;26.10;73.40;;;;;;4992280;28;20951;-68
2023/07/05 17:09:58;;;;;;;8.13;2.20;;;26.20;73.50;;;;;;4991308;28;20641;-69
2023/07/05 17:12:26;;;;;;;3.67;2.20;;;26.30;71.40;;;;;;4992093;28;20503;-68